createdAt,value
2017-12-27T00:00:12.516Z,0
2017-12-27T00:01:27.206Z,0
2017-12-27T00:02:12.550Z,0
2017-12-27T00:03:12.555Z,0
2017-12-27T00:05:27.280Z,0
2017-12-27T00:06:12.368Z,0
2017-12-27T00:07:12.674Z,0
2017-12-27T00:08:12.392Z,0
2017-12-27T00:09:12.440Z,0
2017-12-27T00:10:12.684Z,0
2017-12-27T00:11:12.670Z,0
2017-12-27T00:12:12.462Z,0
2017-12-27T00:13:27.160Z,0
2017-12-27T00:14:12.484Z,0
2017-12-27T00:15:12.756Z,0
2017-12-27T00:16:12.492Z,0
2017-12-27T00:17:12.531Z,0
2017-12-27T00:18:12.291Z,0
2017-12-27T00:19:12.292Z,0
2017-12-27T00:20:12.840Z,0
2017-12-27T00:21:12.327Z,0
2017-12-27T00:22:12.620Z,0
2017-12-27T00:23:12.894Z,0
2017-12-27T00:24:12.896Z,0
2017-12-27T00:25:12.909Z,0
2017-12-27T00:26:27.609Z,0
2017-12-27T00:28:12.938Z,0
2017-12-27T00:29:12.706Z,0
2017-12-27T00:30:27.393Z,0
2017-12-27T00:31:12.771Z,0
2017-12-27T00:32:12.756Z,0
2017-12-27T00:33:27.690Z,0
2017-12-27T00:34:13.038Z,0
2017-12-27T00:35:13.058Z,0
2017-12-27T00:36:13.076Z,0
2017-12-27T00:37:12.851Z,0
2017-12-27T00:38:13.089Z,0
2017-12-27T00:39:13.131Z,0
2017-12-27T00:40:27.780Z,0
2017-12-27T00:41:13.142Z,0
2017-12-27T00:43:13.172Z,0
2017-12-27T00:44:12.951Z,0
2017-12-27T00:45:12.927Z,0
2017-12-27T00:46:13.214Z,0
2017-12-27T00:47:13.212Z,0
2017-12-27T00:48:13.223Z,0
2017-12-27T00:49:27.935Z,0
2017-12-27T00:50:13.269Z,0
2017-12-27T00:51:13.091Z,0
2017-12-27T00:52:13.343Z,0
2017-12-27T00:53:27.972Z,0
2017-12-27T00:54:27.740Z,0
2017-12-27T00:55:13.335Z,0
2017-12-27T00:56:13.093Z,0
2017-12-27T00:57:13.133Z,0
2017-12-27T00:58:12.895Z,0
2017-12-27T00:59:13.421Z,0
2017-12-27T01:00:27.836Z,0
2017-12-27T01:01:13.442Z,0
2017-12-27T01:02:13.429Z,0
2017-12-27T01:03:13.485Z,0
2017-12-27T01:04:12.985Z,0
2017-12-27T01:05:27.916Z,0
2017-12-27T01:06:28.181Z,0
2017-12-27T01:07:13.562Z,0
2017-12-27T01:08:13.527Z,0
2017-12-27T01:10:13.584Z,0
2017-12-27T01:11:28.349Z,0
2017-12-27T01:12:13.593Z,0
2017-12-27T01:13:28.269Z,0
2017-12-27T01:14:13.387Z,0
2017-12-27T01:15:13.614Z,0
2017-12-27T01:16:13.427Z,0
2017-12-27T01:17:13.690Z,0
2017-12-27T01:18:13.684Z,0
2017-12-27T01:19:13.727Z,0
2017-12-27T01:20:28.111Z,0
2017-12-27T01:21:27.901Z,0
2017-12-27T01:22:13.488Z,0
2017-12-27T01:23:13.751Z,0
2017-12-27T01:24:13.239Z,0
2017-12-27T01:25:13.550Z,0
2017-12-27T01:26:13.828Z,0
2017-12-27T01:28:13.316Z,0
2017-12-27T01:29:13.599Z,0
2017-12-27T01:30:13.594Z,0
2017-12-27T01:31:14.021Z,0
2017-12-27T01:32:13.888Z,0
2017-12-27T01:33:13.780Z,0
2017-12-27T01:34:13.914Z,0
2017-12-27T01:35:13.909Z,0
2017-12-27T01:36:28.628Z,0
2017-12-27T01:37:13.721Z,0
2017-12-27T01:38:13.699Z,0
2017-12-27T01:39:28.672Z,0
2017-12-27T01:40:13.725Z,0
2017-12-27T01:42:13.787Z,0
2017-12-27T01:43:14.033Z,0
2017-12-27T01:44:13.830Z,0
2017-12-27T01:45:13.670Z,0
2017-12-27T01:46:14.076Z,0
2017-12-27T01:47:14.131Z,0
2017-12-27T01:48:13.868Z,0
2017-12-27T01:49:13.696Z,0
2017-12-27T01:50:14.150Z,0
2017-12-27T01:52:13.910Z,0
2017-12-27T01:53:14.218Z,0
2017-12-27T01:54:14.206Z,0
2017-12-27T01:55:14.204Z,0
2017-12-27T01:56:13.978Z,0
2017-12-27T01:57:14.008Z,0
2017-12-27T01:58:14.281Z,0
2017-12-27T01:59:14.284Z,0
2017-12-27T02:00:28.729Z,0
2017-12-27T02:01:28.465Z,0
2017-12-27T02:02:14.057Z,0
2017-12-27T02:03:14.311Z,0
2017-12-27T02:04:14.365Z,0
2017-12-27T02:05:14.399Z,0
2017-12-27T02:06:28.799Z,0
2017-12-27T02:07:14.395Z,0
2017-12-27T02:08:29.056Z,0
2017-12-27T02:09:14.427Z,0
2017-12-27T02:10:14.177Z,0
2017-12-27T02:11:14.466Z,0
2017-12-27T02:12:14.445Z,0
2017-12-27T02:13:14.487Z,0
2017-12-27T02:14:28.912Z,0
2017-12-27T02:15:29.158Z,0
2017-12-27T02:16:14.547Z,0
2017-12-27T02:17:14.514Z,0
2017-12-27T02:18:14.292Z,0
2017-12-27T02:19:14.544Z,0
2017-12-27T02:20:14.557Z,0
2017-12-27T02:21:14.565Z,0
2017-12-27T02:22:14.609Z,0
2017-12-27T02:23:14.629Z,0
2017-12-27T02:24:29.079Z,0
2017-12-27T02:26:13.898Z,0
2017-12-27T02:27:14.676Z,0
2017-12-27T02:28:14.670Z,0
2017-12-27T02:29:14.210Z,0
2017-12-27T02:30:14.701Z,0
2017-12-27T02:31:14.736Z,0
2017-12-27T02:32:14.801Z,0
2017-12-27T02:33:14.761Z,0
2017-12-27T02:34:14.778Z,0
2017-12-27T02:35:14.544Z,0
2017-12-27T02:36:14.835Z,0
2017-12-27T02:37:14.826Z,0
2017-12-27T02:38:14.590Z,0
2017-12-27T02:39:14.605Z,0
2017-12-27T02:40:29.367Z,0
2017-12-27T02:41:14.857Z,0
2017-12-27T02:42:29.333Z,0
2017-12-27T02:43:14.909Z,0
2017-12-27T02:44:14.407Z,0
2017-12-27T02:45:14.678Z,0
2017-12-27T02:46:15.065Z,0
2017-12-27T02:47:14.956Z,0
2017-12-27T02:48:14.974Z,0
2017-12-27T02:49:29.405Z,0
2017-12-27T02:50:14.999Z,0
2017-12-27T02:52:15.027Z,0
2017-12-27T02:53:15.042Z,0
2017-12-27T02:54:14.816Z,0
2017-12-27T02:55:15.084Z,0
2017-12-27T02:56:29.261Z,0
2017-12-27T02:57:15.119Z,0
2017-12-27T02:58:15.089Z,0
2017-12-27T02:59:15.166Z,0
2017-12-27T03:00:29.822Z,0
2017-12-27T03:01:15.168Z,0
2017-12-27T03:02:15.169Z,0
2017-12-27T03:03:29.618Z,0
2017-12-27T03:04:29.608Z,0
2017-12-27T03:05:15.195Z,0
2017-12-27T03:06:15.228Z,0
2017-12-27T03:07:15.245Z,0
2017-12-27T03:08:14.980Z,0
2017-12-27T03:09:14.747Z,0
2017-12-27T03:10:15.282Z,0
2017-12-27T03:11:29.994Z,0
2017-12-27T03:12:15.062Z,0
2017-12-27T03:13:15.303Z,0
2017-12-27T03:15:15.083Z,0
2017-12-27T03:16:15.092Z,0
2017-12-27T03:17:30.060Z,0
2017-12-27T03:18:15.388Z,0
2017-12-27T03:19:15.454Z,0
2017-12-27T03:20:15.410Z,0
2017-12-27T03:21:15.200Z,0
2017-12-27T03:22:14.952Z,0
2017-12-27T03:23:15.232Z,0
2017-12-27T03:24:15.215Z,0
2017-12-27T03:25:15.229Z,0
2017-12-27T03:26:15.255Z,0
2017-12-27T03:27:15.264Z,0
2017-12-27T03:28:15.302Z,0
2017-12-27T03:29:15.292Z,0
2017-12-27T03:30:15.302Z,0
2017-12-27T03:31:15.312Z,0
2017-12-27T03:32:15.615Z,0
2017-12-27T03:33:15.604Z,0
2017-12-27T03:34:15.617Z,0
2017-12-27T03:35:15.630Z,0
2017-12-27T03:36:15.650Z,0
2017-12-27T03:37:15.661Z,0
2017-12-27T03:38:15.660Z,0
2017-12-27T03:39:15.475Z,0
2017-12-27T03:40:30.348Z,0
2017-12-27T03:41:15.467Z,0
2017-12-27T03:42:15.746Z,0
2017-12-27T03:43:30.162Z,0
2017-12-27T03:44:15.520Z,0
2017-12-27T03:45:15.504Z,0
2017-12-27T03:46:15.756Z,0
2017-12-27T03:47:15.766Z,0
2017-12-27T03:48:15.549Z,0
2017-12-27T03:49:15.826Z,0
2017-12-27T03:50:15.809Z,0
2017-12-27T03:51:30.262Z,0
2017-12-27T03:52:15.625Z,0
2017-12-27T03:53:15.870Z,0
2017-12-27T03:54:15.887Z,0
2017-12-27T03:55:15.912Z,0
2017-12-27T03:56:16.017Z,0
2017-12-27T03:57:15.937Z,0
2017-12-27T03:58:16.037Z,0
2017-12-27T03:59:30.658Z,0
2017-12-27T04:00:30.665Z,0
2017-12-27T04:01:15.980Z,0
2017-12-27T04:02:16.018Z,0
2017-12-27T04:03:16.021Z,0
2017-12-27T04:04:15.550Z,0
2017-12-27T04:05:15.806Z,0
2017-12-27T04:06:30.722Z,0
2017-12-27T04:07:30.754Z,0
2017-12-27T04:08:16.079Z,0
2017-12-27T04:09:30.750Z,0
2017-12-27T04:10:16.125Z,0
2017-12-27T04:11:16.123Z,0
2017-12-27T04:12:16.148Z,0
2017-12-27T04:13:15.897Z,0
2017-12-27T04:15:30.350Z,0
2017-12-27T04:17:16.248Z,0
2017-12-27T04:18:15.979Z,0
2017-12-27T04:19:15.965Z,0
2017-12-27T04:20:16.263Z,0
2017-12-27T04:21:30.954Z,0
2017-12-27T04:22:16.033Z,0
2017-12-27T04:23:16.279Z,0
2017-12-27T04:24:16.297Z,0
2017-12-27T04:25:16.342Z,0
2017-12-27T04:26:16.301Z,0
2017-12-27T04:27:16.346Z,0
2017-12-27T04:28:31.032Z,0
2017-12-27T04:29:16.403Z,0
2017-12-27T04:30:16.403Z,0
2017-12-27T04:31:45.745Z,0
2017-12-27T04:32:16.413Z,0
2017-12-27T04:33:16.406Z,0
2017-12-27T04:34:16.454Z,0
2017-12-27T04:35:16.194Z,0
2017-12-27T04:36:16.182Z,0
2017-12-27T04:37:16.212Z,0
2017-12-27T04:38:16.479Z,0
2017-12-27T04:39:15.993Z,0
2017-12-27T04:40:16.527Z,0
2017-12-27T04:41:16.278Z,0
2017-12-27T04:42:16.522Z,0
2017-12-27T04:43:16.585Z,0
2017-12-27T04:44:16.576Z,0
2017-12-27T04:45:16.357Z,0
2017-12-27T04:46:30.999Z,0
2017-12-27T04:47:16.391Z,0
2017-12-27T04:48:16.649Z,0
2017-12-27T04:49:16.387Z,0
2017-12-27T04:50:16.632Z,0
2017-12-27T04:51:16.698Z,0
2017-12-27T04:52:16.663Z,0
2017-12-27T04:53:16.423Z,0
2017-12-27T04:54:16.440Z,0
2017-12-27T04:55:16.716Z,0
2017-12-27T04:56:16.737Z,0
2017-12-27T04:57:16.746Z,0
2017-12-27T04:58:16.535Z,0
2017-12-27T04:59:16.797Z,0
2017-12-27T05:00:16.810Z,0
2017-12-27T05:01:31.453Z,0
2017-12-27T05:03:16.880Z,0
2017-12-27T05:04:31.515Z,0
2017-12-27T05:05:31.531Z,0
2017-12-27T05:06:16.362Z,0
2017-12-27T05:07:16.630Z,0
2017-12-27T05:08:16.663Z,0
2017-12-27T05:09:16.912Z,0
2017-12-27T05:10:31.585Z,0
2017-12-27T05:11:16.933Z,0
2017-12-27T05:12:16.970Z,0
2017-12-27T05:13:16.954Z,0
2017-12-27T05:14:16.978Z,0
2017-12-27T05:15:16.737Z,0
2017-12-27T05:16:16.751Z,0
2017-12-27T05:17:16.768Z,0
2017-12-27T05:18:46.374Z,0
2017-12-27T05:19:17.020Z,0
2017-12-27T05:21:16.821Z,0
2017-12-27T05:22:17.064Z,0
2017-12-27T05:23:17.210Z,0
2017-12-27T05:24:17.138Z,0
2017-12-27T05:25:17.120Z,0
2017-12-27T05:26:17.112Z,0
2017-12-27T05:27:31.805Z,0
2017-12-27T05:28:17.159Z,0
2017-12-27T05:29:16.922Z,0
2017-12-27T05:30:17.184Z,0
2017-12-27T05:31:17.197Z,0
2017-12-27T05:32:16.985Z,0
2017-12-27T05:33:17.257Z,0
2017-12-27T05:34:31.899Z,0
2017-12-27T05:35:17.009Z,0
2017-12-27T05:36:17.270Z,0
2017-12-27T05:37:17.028Z,0
2017-12-27T05:38:16.789Z,0
2017-12-27T05:39:17.040Z,0
2017-12-27T05:40:17.346Z,0
2017-12-27T05:41:17.095Z,0
2017-12-27T05:42:32.003Z,0
2017-12-27T05:43:17.118Z,0
2017-12-27T05:44:17.113Z,0
2017-12-27T05:45:17.398Z,0
2017-12-27T05:46:17.438Z,0
2017-12-27T05:47:17.404Z,0
2017-12-27T05:48:17.461Z,0
2017-12-27T05:49:16.928Z,0
2017-12-27T05:50:31.864Z,0
2017-12-27T05:51:17.205Z,0
2017-12-27T05:53:16.988Z,0
2017-12-27T05:54:17.231Z,0
2017-12-27T05:55:17.508Z,0
2017-12-27T05:56:17.351Z,0
2017-12-27T05:57:17.324Z,0
2017-12-27T05:58:17.346Z,0
2017-12-27T05:59:17.572Z,0
2017-12-27T06:00:17.358Z,0
2017-12-27T06:01:17.619Z,0
2017-12-27T06:02:17.596Z,0
2017-12-27T06:03:17.662Z,0
2017-12-27T06:04:17.643Z,0
2017-12-27T06:05:17.658Z,0
2017-12-27T06:06:32.348Z,0
2017-12-27T06:07:17.683Z,0
2017-12-27T06:08:17.469Z,0
2017-12-27T06:09:17.779Z,0
2017-12-27T06:10:17.730Z,0
2017-12-27T06:11:17.757Z,0
2017-12-27T06:12:17.758Z,0
2017-12-27T06:13:17.766Z,0
2017-12-27T06:16:17.793Z,0
2017-12-27T06:17:32.506Z,0
2017-12-27T06:18:17.818Z,0
2017-12-27T06:19:17.855Z,0
2017-12-27T06:20:17.975Z,0
2017-12-27T06:21:32.549Z,0
2017-12-27T06:22:17.915Z,0
2017-12-27T06:23:17.898Z,0
2017-12-27T06:24:17.931Z,0
2017-12-27T06:25:17.926Z,0
2017-12-27T06:26:17.941Z,0
2017-12-27T06:27:17.447Z,0
2017-12-27T06:28:17.964Z,0
2017-12-27T06:29:18.058Z,0
2017-12-27T06:30:17.991Z,0
2017-12-27T06:31:17.758Z,0
2017-12-27T06:32:17.775Z,0
2017-12-27T06:33:17.782Z,4
2017-12-27T06:34:18.061Z,4
2017-12-27T06:35:18.066Z,4
2017-12-27T06:36:17.584Z,0
2017-12-27T06:37:18.089Z,4
2017-12-27T06:38:17.844Z,4
2017-12-27T06:39:18.143Z,4
2017-12-27T06:40:17.859Z,4
2017-12-27T06:41:17.916Z,8
2017-12-27T06:42:18.134Z,8
2017-12-27T06:43:32.863Z,8
2017-12-27T06:44:17.659Z,12
2017-12-27T06:45:18.213Z,12
2017-12-27T06:46:18.191Z,12
2017-12-27T06:47:18.203Z,12
2017-12-27T06:48:17.993Z,16
2017-12-27T06:49:17.737Z,16
2017-12-27T06:50:18.281Z,20
2017-12-27T06:51:18.036Z,24
2017-12-27T06:52:18.050Z,28
2017-12-27T06:53:32.994Z,32
2017-12-27T06:54:18.056Z,36
2017-12-27T06:55:18.076Z,40
2017-12-27T06:57:18.351Z,60
2017-12-27T06:58:18.126Z,72
2017-12-27T06:59:18.122Z,84
2017-12-27T07:00:18.397Z,96
2017-12-27T07:01:18.419Z,108
2017-12-27T07:02:18.406Z,112
2017-12-27T07:04:18.189Z,132
2017-12-27T07:05:18.463Z,144
2017-12-27T07:07:18.498Z,176
2017-12-27T07:08:18.224Z,192
2017-12-27T07:09:47.875Z,212
2017-12-27T07:10:18.528Z,224
2017-12-27T07:11:18.539Z,244
2017-12-27T07:12:33.246Z,272
2017-12-27T07:13:18.562Z,292
2017-12-27T07:14:18.062Z,316
2017-12-27T07:15:18.076Z,340
2017-12-27T07:16:18.609Z,364
2017-12-27T07:17:18.625Z,392
2017-12-27T07:18:18.608Z,420
2017-12-27T07:19:18.649Z,448
2017-12-27T07:21:18.768Z,512
2017-12-27T07:22:33.102Z,560
2017-12-27T07:23:18.704Z,596
2017-12-27T07:25:33.403Z,704
2017-12-27T07:26:33.434Z,756
2017-12-27T07:27:18.734Z,792
2017-12-27T07:29:18.546Z,912
2017-12-27T07:30:18.804Z,972
2017-12-27T07:31:18.834Z,1036
2017-12-27T07:32:18.819Z,1096
2017-12-27T07:33:18.818Z,1152
2017-12-27T07:34:33.556Z,1204
2017-12-27T07:36:18.878Z,1272
2017-12-27T07:37:18.914Z,1316
2017-12-27T07:38:18.904Z,1360
2017-12-27T07:39:18.902Z,1412
2017-12-27T07:40:18.926Z,1464
2017-12-27T07:41:33.625Z,1536
2017-12-27T07:42:18.719Z,1576
2017-12-27T07:43:18.988Z,1620
2017-12-27T07:44:18.739Z,1660
2017-12-27T07:45:33.404Z,1700
2017-12-27T07:46:19.012Z,1720
2017-12-27T07:47:19.034Z,1760
2017-12-27T07:48:33.446Z,1808
2017-12-27T07:49:19.054Z,1840
2017-12-27T07:50:19.086Z,1876
2017-12-27T07:51:33.504Z,1932
2017-12-27T07:52:19.100Z,1960
2017-12-27T07:53:19.126Z,2008
2017-12-27T07:54:19.119Z,2048
2017-12-27T07:55:33.554Z,2100
2017-12-27T07:56:33.813Z,2148
2017-12-27T07:57:19.153Z,2188
2017-12-27T07:58:19.150Z,2248
2017-12-27T07:59:19.197Z,2296
2017-12-27T08:00:19.210Z,2324
2017-12-27T08:02:19.239Z,2392
2017-12-27T08:04:19.276Z,2364
2017-12-27T08:05:19.271Z,2392
2017-12-27T08:07:33.954Z,2460
2017-12-27T08:08:19.304Z,2496
2017-12-27T08:09:19.070Z,2532
2017-12-27T08:10:19.349Z,2584
2017-12-27T08:11:19.101Z,2648
2017-12-27T08:12:19.342Z,2700
2017-12-27T08:13:19.375Z,2748
2017-12-27T08:14:19.406Z,2796
2017-12-27T08:15:19.405Z,2852
2017-12-27T08:16:19.428Z,2912
2017-12-27T08:17:34.103Z,3008
2017-12-27T08:19:19.486Z,3156
2017-12-27T08:20:19.228Z,3252
2017-12-27T08:21:19.466Z,3328
2017-12-27T08:22:19.276Z,3368
2017-12-27T08:24:19.279Z,3512
2017-12-27T08:25:19.291Z,3576
2017-12-27T08:26:19.569Z,3636
2017-12-27T08:27:19.576Z,3700
2017-12-27T08:28:34.238Z,3732
2017-12-27T08:29:19.335Z,3756
2017-12-27T08:30:19.480Z,3708
2017-12-27T08:31:19.617Z,3732
2017-12-27T08:32:19.628Z,3780
2017-12-27T08:33:19.646Z,3772
2017-12-27T08:34:19.730Z,3768
2017-12-27T08:35:19.688Z,3764
2017-12-27T08:36:19.446Z,3760
2017-12-27T08:37:34.388Z,3756
2017-12-27T08:38:19.729Z,3768
2017-12-27T08:39:19.752Z,3756
2017-12-27T08:40:19.748Z,3720
2017-12-27T08:41:19.808Z,3704
2017-12-27T08:42:19.788Z,3708
2017-12-27T08:43:19.820Z,3724
2017-12-27T08:44:34.465Z,3736
2017-12-27T08:45:19.594Z,3744
2017-12-27T08:46:19.807Z,3756
2017-12-27T08:47:19.879Z,3784
2017-12-27T08:49:19.619Z,3840
2017-12-27T08:50:34.557Z,3976
2017-12-27T08:51:19.636Z,4044
2017-12-27T08:52:19.898Z,4148
2017-12-27T08:53:19.683Z,4264
2017-12-27T08:54:19.680Z,4280
2017-12-27T08:55:19.962Z,4380
2017-12-27T08:57:20.010Z,4536
2017-12-27T08:58:20.022Z,4648
2017-12-27T08:59:20.023Z,4708
2017-12-27T09:00:34.705Z,4788
2017-12-27T09:01:19.776Z,4844
2017-12-27T09:02:20.100Z,4892
2017-12-27T09:03:20.064Z,5132
2017-12-27T09:04:34.767Z,5200
2017-12-27T09:05:19.618Z,5268
2017-12-27T09:06:20.122Z,5328
2017-12-27T09:07:20.134Z,5520
2017-12-27T09:08:20.127Z,5588
2017-12-27T09:09:19.913Z,5540
2017-12-27T09:10:20.154Z,5440
2017-12-27T09:12:20.228Z,5420
2017-12-27T09:13:34.631Z,5368
2017-12-27T09:14:34.910Z,5380
2017-12-27T09:15:20.245Z,5404
2017-12-27T09:16:34.924Z,5392
2017-12-27T09:18:20.280Z,5468
2017-12-27T09:19:20.373Z,5616
2017-12-27T09:20:20.347Z,5636
2017-12-27T09:22:20.374Z,5700
2017-12-27T09:23:20.379Z,5764
2017-12-27T09:25:20.388Z,5984
2017-12-27T09:26:35.066Z,6120
2017-12-27T09:27:20.429Z,6140
2017-12-27T09:28:35.124Z,6084
2017-12-27T09:29:20.460Z,6048
2017-12-27T09:30:20.220Z,5984
2017-12-27T09:31:35.166Z,5904
2017-12-27T09:32:20.266Z,5800
2017-12-27T09:33:34.922Z,5556
2017-12-27T09:34:35.221Z,5412
2017-12-27T09:35:20.298Z,5372
2017-12-27T09:36:20.589Z,5220
2017-12-27T09:37:20.339Z,5040
2017-12-27T09:38:20.619Z,4892
2017-12-27T09:39:35.263Z,4808
2017-12-27T09:41:35.313Z,4620
2017-12-27T09:42:20.661Z,4596
2017-12-27T09:43:34.836Z,4664
2017-12-27T09:44:20.439Z,4696
2017-12-27T09:45:20.443Z,4688
2017-12-27T09:46:20.711Z,4756
2017-12-27T09:47:20.721Z,4808
2017-12-27T09:48:35.439Z,4776
2017-12-27T09:49:35.422Z,4756
2017-12-27T09:50:20.776Z,4776
2017-12-27T09:51:20.796Z,4812
2017-12-27T09:52:35.481Z,4820
2017-12-27T09:53:20.810Z,4792
2017-12-27T09:54:20.839Z,4844
2017-12-27T09:55:20.839Z,4920
2017-12-27T09:56:20.872Z,4908
2017-12-27T09:57:20.882Z,4856
2017-12-27T09:58:20.912Z,4836
2017-12-27T09:59:35.580Z,4772
2017-12-27T10:00:20.642Z,4700
2017-12-27T10:01:20.917Z,4796
2017-12-27T10:02:21.073Z,4936
2017-12-27T10:03:35.631Z,4976
2017-12-27T10:04:20.993Z,4968
2017-12-27T10:05:20.759Z,5024
2017-12-27T10:06:21.001Z,4952
2017-12-27T10:07:21.023Z,4988
2017-12-27T10:08:21.065Z,5000
2017-12-27T10:09:20.311Z,4980
2017-12-27T10:11:20.834Z,4992
2017-12-27T10:12:21.126Z,5024
2017-12-27T10:13:21.123Z,5036
2017-12-27T10:14:21.133Z,5032
2017-12-27T10:15:21.174Z,5048
2017-12-27T10:16:21.176Z,5048
2017-12-27T10:17:21.181Z,5044
2017-12-27T10:18:35.853Z,4988
2017-12-27T10:19:35.863Z,4904
2017-12-27T10:20:20.999Z,4856
2017-12-27T10:21:21.253Z,4852
2017-12-27T10:22:20.995Z,4804
2017-12-27T10:23:35.683Z,4764
2017-12-27T10:24:21.289Z,4744
2017-12-27T10:25:21.301Z,4716
2017-12-27T10:26:21.343Z,4708
2017-12-27T10:27:21.353Z,4644
2017-12-27T10:28:21.352Z,4680
2017-12-27T10:29:36.042Z,4620
2017-12-27T10:30:21.381Z,4604
2017-12-27T10:31:21.377Z,4644
2017-12-27T10:32:21.412Z,4684
2017-12-27T10:33:21.455Z,4744
2017-12-27T10:34:35.864Z,4828
2017-12-27T10:36:21.223Z,4828
2017-12-27T10:37:21.521Z,4792
2017-12-27T10:38:21.242Z,4808
2017-12-27T10:39:21.527Z,4832
2017-12-27T10:40:21.307Z,4800
2017-12-27T10:41:21.028Z,4728
2017-12-27T10:42:21.560Z,4644
2017-12-27T10:43:21.598Z,4592
2017-12-27T10:44:21.357Z,4560
2017-12-27T10:45:21.607Z,4548
2017-12-27T10:46:21.655Z,4540
2017-12-27T10:47:21.667Z,4552
2017-12-27T10:48:21.649Z,4560
2017-12-27T10:49:36.350Z,4568
2017-12-27T10:50:21.668Z,4556
2017-12-27T10:51:36.398Z,4516
2017-12-27T10:52:21.696Z,4492
2017-12-27T10:53:21.738Z,4444
2017-12-27T10:54:21.242Z,4380
2017-12-27T10:55:21.790Z,4308
2017-12-27T10:56:21.526Z,4228
2017-12-27T10:57:21.849Z,4160
2017-12-27T10:58:21.340Z,4092
2017-12-27T10:59:21.838Z,4028
2017-12-27T11:00:21.584Z,3976
2017-12-27T11:01:36.555Z,3940
2017-12-27T11:02:21.878Z,3928
2017-12-27T11:03:36.584Z,3920
2017-12-27T11:04:21.676Z,3912
2017-12-27T11:06:36.646Z,3932
2017-12-27T11:07:21.986Z,3968
2017-12-27T11:08:21.960Z,4024
2017-12-27T11:09:21.988Z,4076
2017-12-27T11:11:22.013Z,4144
2017-12-27T11:12:22.034Z,4160
2017-12-27T11:13:22.083Z,4172
2017-12-27T11:14:21.842Z,4160
2017-12-27T11:15:22.130Z,4164
2017-12-27T11:16:21.858Z,4240
2017-12-27T11:17:36.802Z,4312
2017-12-27T11:18:21.882Z,4344
2017-12-27T11:19:21.913Z,4392
2017-12-27T11:20:22.170Z,4480
2017-12-27T11:21:22.173Z,4472
2017-12-27T11:22:36.880Z,4536
2017-12-27T11:23:22.205Z,4664
2017-12-27T11:24:36.899Z,4624
2017-12-27T11:25:21.978Z,4612
2017-12-27T11:26:22.248Z,4700
2017-12-27T11:27:22.282Z,4780
2017-12-27T11:28:22.323Z,4760
2017-12-27T11:29:22.049Z,4812
2017-12-27T11:30:22.065Z,4868
2017-12-27T11:32:22.342Z,4852
2017-12-27T11:33:22.393Z,4840
2017-12-27T11:34:22.187Z,4796
2017-12-27T11:35:37.073Z,4756
2017-12-27T11:36:22.411Z,4704
2017-12-27T11:37:22.221Z,4636
2017-12-27T11:38:51.803Z,4484
2017-12-27T11:39:22.590Z,4432
2017-12-27T11:40:22.479Z,4332
2017-12-27T11:41:22.504Z,4260
2017-12-27T11:42:22.610Z,4220
2017-12-27T11:43:22.543Z,4192
2017-12-27T11:44:22.427Z,4144
2017-12-27T11:46:22.620Z,3948
2017-12-27T11:47:22.364Z,3820
2017-12-27T11:48:22.632Z,3704
2017-12-27T11:49:22.397Z,3608
2017-12-27T11:50:37.342Z,3540
2017-12-27T11:51:22.422Z,3508
2017-12-27T11:52:22.713Z,3464
2017-12-27T11:53:22.457Z,3432
2017-12-27T11:54:37.436Z,3424
2017-12-27T11:55:22.754Z,3436
2017-12-27T11:56:22.793Z,3464
2017-12-27T11:57:22.781Z,3496
2017-12-27T11:58:22.808Z,3492
2017-12-27T11:59:22.790Z,3496
2017-12-27T12:00:22.860Z,3520
2017-12-27T12:01:37.523Z,3540
2017-12-27T12:02:22.865Z,3552
2017-12-27T12:03:22.905Z,3580
2017-12-27T12:04:22.899Z,3612
2017-12-27T12:05:22.899Z,3656
2017-12-27T12:06:22.927Z,3704
2017-12-27T12:07:22.941Z,3744
2017-12-27T12:08:22.988Z,3800
2017-12-27T12:09:23.116Z,3848
2017-12-27T12:10:37.682Z,3900
2017-12-27T12:11:23.018Z,3912
2017-12-27T12:12:22.785Z,3940
2017-12-27T12:13:37.727Z,4044
2017-12-27T12:14:22.814Z,4028
2017-12-27T12:15:23.119Z,3916
2017-12-27T12:17:22.843Z,3800
2017-12-27T12:18:23.114Z,3756
2017-12-27T12:19:23.168Z,3700
2017-12-27T12:20:23.202Z,3648
2017-12-27T12:21:23.178Z,3600
2017-12-27T12:23:23.202Z,3500
2017-12-27T12:24:22.982Z,3472
2017-12-27T12:25:22.987Z,3448
2017-12-27T12:27:23.263Z,3428
2017-12-27T12:28:23.321Z,3424
2017-12-27T12:29:23.351Z,3392
2017-12-27T12:30:23.344Z,3340
2017-12-27T12:31:23.360Z,3264
2017-12-27T12:32:38.060Z,3144
2017-12-27T12:33:23.139Z,3072
2017-12-27T12:34:23.394Z,2972
2017-12-27T12:35:23.161Z,2892
2017-12-27T12:36:23.552Z,2808
2017-12-27T12:37:23.473Z,2728
2017-12-27T12:38:23.497Z,2660
2017-12-27T12:39:23.231Z,2604
2017-12-27T12:40:37.913Z,2556
2017-12-27T12:41:38.196Z,2540
2017-12-27T12:42:23.566Z,2536
2017-12-27T12:43:23.054Z,2536
2017-12-27T12:44:23.596Z,2544
2017-12-27T12:45:23.572Z,2560
2017-12-27T12:46:23.332Z,2568
2017-12-27T12:47:23.375Z,2572
2017-12-27T12:48:23.384Z,2576
2017-12-27T12:49:23.692Z,2576
2017-12-27T12:50:23.668Z,2564
2017-12-27T12:51:23.688Z,2536
2017-12-27T12:52:23.496Z,2492
2017-12-27T12:53:38.168Z,2404
2017-12-27T12:54:23.543Z,2352
2017-12-27T12:55:23.782Z,2276
2017-12-27T12:56:23.532Z,2204
2017-12-27T12:57:23.549Z,2128
2017-12-27T12:58:38.493Z,2024
2017-12-27T12:59:23.841Z,1972
2017-12-27T13:00:23.561Z,1928
2017-12-27T13:01:23.833Z,1908
2017-12-27T13:02:23.865Z,1900
2017-12-27T13:03:23.636Z,1896
2017-12-27T13:04:23.645Z,1896
2017-12-27T13:05:38.581Z,1888
2017-12-27T13:06:23.446Z,1880
2017-12-27T13:07:23.783Z,1864
2017-12-27T13:08:24.000Z,1844
2017-12-27T13:09:23.717Z,1832
2017-12-27T13:10:24.020Z,1832
2017-12-27T13:11:23.532Z,1832
2017-12-27T13:13:38.772Z,1808
2017-12-27T13:14:24.054Z,1792
2017-12-27T13:15:38.750Z,1744
2017-12-27T13:16:24.154Z,1708
2017-12-27T13:18:23.891Z,1608
2017-12-27T13:19:38.838Z,1556
2017-12-27T13:20:24.199Z,1532
2017-12-27T13:22:23.702Z,1496
2017-12-27T13:23:24.230Z,1480
2017-12-27T13:24:23.992Z,1476
2017-12-27T13:25:24.284Z,1460
2017-12-27T13:26:24.306Z,1444
2017-12-27T13:27:23.785Z,1436
2017-12-27T13:28:24.328Z,1420
2017-12-27T13:29:38.979Z,1388
2017-12-27T13:30:24.116Z,1356
2017-12-27T13:31:24.094Z,1324
2017-12-27T13:32:24.370Z,1296
2017-12-27T13:33:24.392Z,1280
2017-12-27T13:34:24.392Z,1260
2017-12-27T13:35:39.085Z,1228
2017-12-27T13:36:24.199Z,1212
2017-12-27T13:37:24.213Z,1184
2017-12-27T13:38:24.473Z,1156
2017-12-27T13:40:24.501Z,1096
2017-12-27T13:41:39.190Z,1060
2017-12-27T13:42:24.570Z,1032
2017-12-27T13:43:24.566Z,1004
2017-12-27T13:44:24.354Z,984
2017-12-27T13:46:39.284Z,920
2017-12-27T13:47:24.669Z,896
2017-12-27T13:48:24.636Z,868
2017-12-27T13:49:24.634Z,836
2017-12-27T13:50:24.648Z,804
2017-12-27T13:52:24.739Z,748
2017-12-27T13:53:24.461Z,728
2017-12-27T13:55:24.763Z,672
2017-12-27T13:56:39.475Z,644
2017-12-27T13:57:24.555Z,624
2017-12-27T13:58:24.562Z,600
2017-12-27T13:59:39.519Z,584
2017-12-27T14:00:24.583Z,572
2017-12-27T14:01:53.944Z,560
2017-12-27T14:02:24.885Z,556
2017-12-27T14:03:24.909Z,552
2017-12-27T14:04:24.911Z,548
2017-12-27T14:05:24.715Z,536
2017-12-27T14:06:24.706Z,524
2017-12-27T14:07:24.713Z,512
2017-12-27T14:08:24.718Z,492
2017-12-27T14:09:24.981Z,480
2017-12-27T14:10:24.769Z,464
2017-12-27T14:11:24.747Z,452
2017-12-27T14:12:25.031Z,436
2017-12-27T14:13:25.075Z,424
2017-12-27T14:14:25.078Z,408
2017-12-27T14:15:25.100Z,396
2017-12-27T14:16:39.630Z,372
2017-12-27T14:17:24.888Z,360
2017-12-27T14:18:24.874Z,348
2017-12-27T14:19:25.176Z,328
2017-12-27T14:20:24.924Z,316
2017-12-27T14:21:24.955Z,300
2017-12-27T14:22:25.233Z,288
2017-12-27T14:23:24.718Z,272
2017-12-27T14:24:25.343Z,260
2017-12-27T14:25:25.000Z,248
2017-12-27T14:26:25.005Z,236
2017-12-27T14:28:25.339Z,212
2017-12-27T14:29:25.302Z,196
2017-12-27T14:30:25.332Z,184
2017-12-27T14:31:25.097Z,168
2017-12-27T14:33:25.406Z,148
2017-12-27T14:34:40.066Z,136
2017-12-27T14:35:25.431Z,132
2017-12-27T14:36:39.881Z,124
2017-12-27T14:37:40.137Z,116
2017-12-27T14:38:25.234Z,108
2017-12-27T14:39:24.974Z,104
2017-12-27T14:41:25.515Z,96
2017-12-27T14:42:25.268Z,92
2017-12-27T14:43:25.334Z,92
2017-12-27T14:44:25.574Z,88
2017-12-27T14:45:25.608Z,84
2017-12-27T14:46:25.356Z,80
2017-12-27T14:47:25.615Z,76
2017-12-27T14:48:40.313Z,72
2017-12-27T14:49:25.652Z,68
2017-12-27T14:50:25.660Z,64
2017-12-27T14:51:25.176Z,60
2017-12-27T14:52:25.683Z,60
2017-12-27T14:53:25.475Z,56
2017-12-27T14:54:25.480Z,52
2017-12-27T14:55:25.516Z,48
2017-12-27T14:56:25.742Z,48